Time,TemperatureF,DewpointF,PressureIn,WindDirection,WindDirectionDegrees,WindSpeedMPH,WindSpeedGustMPH,Humidity,HourlyPrecipIn,Conditions,Clouds,dailyrainin,SoftwareType,DateUTC
2013-05-09 00:01:00,60.9,56.4,29.93,West,270,0.0,0.0,85,0.00,,CLR,0.00,VWS V14.00,2013-05-09 04:01:00,
2013-05-09 00:06:00,60.4,56.2,29.93,West,270,0.0,1.0,86,0.00,,CLR,0.00,VWS V14.00,2013-05-09 04:06:00,
2013-05-09 00:11:00,60.3,56.1,29.93,West,271,0.0,1.0,86,0.00,,CLR,0.00,VWS V14.00,2013-05-09 04:11:00,
2013-05-09 00:16:00,60.2,56.0,29.93,West,271,0.0,1.0,86,0.00,,CLR,0.00,VWS V14.00,2013-05-09 04:16:00,
2013-05-09 00:21:00,60.1,56.2,29.93,West,271,0.0,1.0,87,0.00,,CLR,0.00,VWS V14.00,2013-05-09 04:21:00,
2013-05-09 00:26:00,59.7,55.8,29.93,West,271,0.0,1.0,87,0.00,,CLR,0.00,VWS V14.00,2013-05-09 04:26:00,
2013-05-09 00:31:00,59.5,55.6,29.92,West,271,0.0,0.0,87,0.00,,CLR,0.00,VWS V14.00,2013-05-09 04:31:00,
2013-05-09 00:36:00,59.4,55.5,29.92,West,271,0.0,0.0,87,0.00,,CLR,0.00,VWS V14.00,2013-05-09 04:36:00,
2013-05-09 00:41:00,59.3,55.8,29.92,West,270,0.0,0.0,88,0.00,,CLR,0.00,VWS V14.00,2013-05-09 04:41:00,
2013-05-09 00:46:00,59.0,55.5,29.92,West,271,0.0,0.0,88,0.00,,CLR,0.00,VWS V14.00,2013-05-09 04:46:00,
2013-05-09 00:51:00,58.9,55.7,29.92,West,271,0.0,0.0,89,0.00,,CLR,0.00,VWS V14.00,2013-05-09 04:51:00,
2013-05-09 00:56:00,58.5,55.3,29.92,West,271,0.0,0.0,89,0.00,,CLR,0.00,VWS V14.00,2013-05-09 04:56:00,
2013-05-09 01:01:00,58.3,55.4,29.92,West,271,0.0,0.0,90,0.00,,CLR,0.00,VWS V14.00,2013-05-09 05:01:00,
2013-05-09 01:06:00,58.0,55.1,29.92,West,270,0.0,0.0,90,0.00,,CLR,0.00,VWS V14.00,2013-05-09 05:06:00,
2013-05-09 01:11:00,57.6,54.7,29.92,West,270,0.0,0.0,90,0.00,,CLR,0.00,VWS V14.00,2013-05-09 05:11:00,
2013-05-09 01:16:00,57.2,54.6,29.93,West,271,0.0,0.0,91,0.00,,CLR,0.00,VWS V14.00,2013-05-09 05:16:00,
2013-05-09 01:21:00,57.1,54.8,29.93,West,271,0.0,0.0,92,0.00,,CLR,0.00,VWS V14.00,2013-05-09 05:21:00,
2013-05-09 01:26:00,57.3,55.0,29.93,West,271,0.0,0.0,92,0.00,,CLR,0.00,VWS V14.00,2013-05-09 05:26:00,
2013-05-09 01:31:00,57.2,54.6,29.92,West,271,0.0,0.0,91,0.00,,CLR,0.00,VWS V14.00,2013-05-09 05:31:00,
2013-05-09 01:36:00,56.9,54.6,29.92,West,271,0.0,0.0,92,0.00,,CLR,0.00,VWS V14.00,2013-05-09 05:36:00,
2013-05-09 01:41:00,56.8,54.5,29.92,West,270,0.0,0.0,92,0.00,,CLR,0.00,VWS V14.00,2013-05-09 05:41:00,
2013-05-09 01:46:00,56.6,54.3,29.92,West,271,0.0,0.0,92,0.00,,CLR,0.00,VWS V14.00,2013-05-09 05:46:00,
2013-05-09 01:51:00,56.3,54.0,29.92,West,271,0.0,0.0,92,0.00,,CLR,0.00,VWS V14.00,2013-05-09 05:51:00,
2013-05-09 01:56:00,56.0,53.7,29.92,West,271,0.0,0.0,92,0.00,,CLR,0.00,VWS V14.00,2013-05-09 05:56:00,
2013-05-09 02:01:00,55.7,53.7,29.92,West,271,0.0,0.0,93,0.00,,CLR,0.00,VWS V14.00,2013-05-09 06:01:00,
2013-05-09 02:06:00,55.6,53.6,29.92,West,271,0.0,0.0,93,0.00,,CLR,0.00,VWS V14.00,2013-05-09 06:06:00,
2013-05-09 02:11:00,55.6,53.9,29.92,West,271,0.0,0.0,94,0.00,,CLR,0.00,VWS V14.00,2013-05-09 06:11:00,
2013-05-09 02:16:00,55.5,53.8,29.92,West,271,0.0,0.0,94,0.00,,CLR,0.00,VWS V14.00,2013-05-09 06:16:00,
2013-05-09 02:21:00,55.4,53.7,29.92,West,270,0.0,0.0,94,0.00,,CLR,0.00,VWS V14.00,2013-05-09 06:21:00,
2013-05-09 02:26:00,55.4,53.7,29.92,West,271,0.0,0.0,94,0.00,,CLR,0.00,VWS V14.00,2013-05-09 06:26:00,
2013-05-09 02:31:00,55.1,53.1,29.92,West,270,0.0,0.0,93,0.00,,CLR,0.00,VWS V14.00,2013-05-09 06:31:00,
2013-05-09 02:36:00,54.8,53.1,29.92,West,271,0.0,1.0,94,0.00,,CLR,0.00,VWS V14.00,2013-05-09 06:36:00,
2013-05-09 02:41:00,54.5,52.8,29.92,West,271,0.0,1.0,94,0.00,,CLR,0.00,VWS V14.00,2013-05-09 06:41:00,
2013-05-09 02:46:00,54.5,52.8,29.91,West,271,0.0,1.0,94,0.00,,CLR,0.00,VWS V14.00,2013-05-09 06:46:00,
2013-05-09 02:51:00,54.5,52.8,29.91,West,271,0.0,1.0,94,0.00,,CLR,0.00,VWS V14.00,2013-05-09 06:51:00,
2013-05-09 02:56:00,54.5,53.1,29.91,West,271,0.0,1.0,95,0.00,,CLR,0.00,VWS V14.00,2013-05-09 06:56:00,
2013-05-09 03:01:00,54.4,52.7,29.91,West,270,0.0,0.0,94,0.00,,CLR,0.00,VWS V14.00,2013-05-09 07:01:00,
2013-05-09 03:06:00,54.2,52.5,29.91,West,271,0.0,0.0,94,0.00,,CLR,0.00,VWS V14.00,2013-05-09 07:06:00,
2013-05-09 03:11:00,54.1,52.4,29.91,West,271,0.0,1.0,94,0.00,,CLR,0.00,VWS V14.00,2013-05-09 07:11:00,
2013-05-09 03:16:00,54.1,52.7,29.91,West,271,0.0,1.0,95,0.00,,CLR,0.00,VWS V14.00,2013-05-09 07:16:00,
2013-05-09 03:21:00,54.2,52.8,29.91,West,271,0.0,1.0,95,0.00,,CLR,0.00,VWS V14.00,2013-05-09 07:21:00,
2013-05-09 03:26:00,54.4,53.0,29.91,West,271,0.0,1.0,95,0.00,,CLR,0.00,VWS V14.00,2013-05-09 07:26:00,
2013-05-09 03:31:00,54.5,53.1,29.91,West,271,0.0,0.0,95,0.00,,CLR,0.00,VWS V14.00,2013-05-09 07:31:00,
2013-05-09 03:36:00,53.8,52.1,29.91,West,271,0.0,0.0,94,0.00,,CLR,0.00,VWS V14.00,2013-05-09 07:36:00,
2013-05-09 03:41:00,53.3,51.6,29.91,West,271,0.0,0.0,94,0.00,,CLR,0.00,VWS V14.00,2013-05-09 07:41:00,
2013-05-09 03:46:00,53.2,51.8,29.91,West,271,0.0,0.0,95,0.00,,CLR,0.00,VWS V14.00,2013-05-09 07:46:00,
2013-05-09 03:51:00,53.0,51.6,29.91,West,271,0.0,0.0,95,0.00,,CLR,0.00,VWS V14.00,2013-05-09 07:51:00,
2013-05-09 03:56:00,52.8,51.1,29.91,West,271,0.0,0.0,94,0.00,,CLR,0.00,VWS V14.00,2013-05-09 07:56:00,
2013-05-09 04:01:00,52.9,51.5,29.91,West,271,0.0,0.0,95,0.00,,CLR,0.00,VWS V14.00,2013-05-09 08:01:00,
2013-05-09 04:06:00,53.0,51.6,29.91,West,271,0.0,0.0,95,0.00,,CLR,0.00,VWS V14.00,2013-05-09 08:06:00,
2013-05-09 04:11:00,52.9,51.5,29.91,West,271,0.0,0.0,95,0.00,,CLR,0.00,VWS V14.00,2013-05-09 08:11:00,
2013-05-09 04:16:00,52.7,51.3,29.91,West,271,0.0,0.0,95,0.00,,CLR,0.00,VWS V14.00,2013-05-09 08:16:00,
2013-05-09 04:21:00,52.6,51.2,29.91,West,271,0.0,0.0,95,0.00,,CLR,0.00,VWS V14.00,2013-05-09 08:21:00,
2013-05-09 04:26:00,52.6,51.2,29.91,West,271,0.0,0.0,95,0.00,,CLR,0.00,VWS V14.00,2013-05-09 08:26:00,
2013-05-09 04:31:00,52.8,51.4,29.91,West,271,0.0,0.0,95,0.00,,CLR,0.00,VWS V14.00,2013-05-09 08:31:00,
2013-05-09 04:36:00,52.8,51.4,29.91,West,271,0.0,0.0,95,0.00,,CLR,0.00,VWS V14.00,2013-05-09 08:36:00,
2013-05-09 04:41:00,52.4,51.0,29.91,West,271,0.0,0.0,95,0.00,,CLR,0.00,VWS V14.00,2013-05-09 08:41:00,
2013-05-09 04:46:00,52.2,50.8,29.92,West,271,0.0,0.0,95,0.00,,CLR,0.00,VWS V14.00,2013-05-09 08:46:00,
2013-05-09 04:51:00,52.0,50.6,29.92,West,271,0.0,0.0,95,0.00,,CLR,0.00,VWS V14.00,2013-05-09 08:51:00,
2013-05-09 04:56:00,52.0,50.6,29.92,West,271,0.0,0.0,95,0.00,,CLR,0.00,VWS V14.00,2013-05-09 08:56:00,
2013-05-09 05:01:00,52.0,50.6,29.92,West,271,0.0,0.0,95,0.00,,CLR,0.00,VWS V14.00,2013-05-09 09:01:00,
2013-05-09 05:06:00,51.9,50.5,29.92,West,271,0.0,0.0,95,0.00,,CLR,0.00,VWS V14.00,2013-05-09 09:06:00,
2013-05-09 05:11:00,52.1,51.0,29.92,West,271,0.0,0.0,96,0.00,,CLR,0.00,VWS V14.00,2013-05-09 09:11:00,
2013-05-09 05:16:00,52.0,50.6,29.92,West,271,0.0,0.0,95,0.00,,CLR,0.00,VWS V14.00,2013-05-09 09:16:00,
2013-05-09 05:21:00,51.8,50.4,29.92,West,271,0.0,0.0,95,0.00,,CLR,0.00,VWS V14.00,2013-05-09 09:21:00,
2013-05-09 05:26:00,51.4,50.0,29.92,West,271,0.0,0.0,95,0.00,,CLR,0.00,VWS V14.00,2013-05-09 09:26:00,
2013-05-09 05:31:00,50.9,49.5,29.93,West,271,0.0,0.0,95,0.00,,CLR,0.00,VWS V14.00,2013-05-09 09:31:00,
2013-05-09 05:36:00,50.8,49.4,29.93,West,271,0.0,0.0,95,0.00,,CLR,0.00,VWS V14.00,2013-05-09 09:36:00,
2013-05-09 05:41:00,51.1,50.0,29.93,West,271,0.0,0.0,96,0.00,,CLR,0.00,VWS V14.00,2013-05-09 09:41:00,
2013-05-09 05:46:00,51.3,49.9,29.93,West,271,0.0,0.0,95,0.00,,CLR,0.00,VWS V14.00,2013-05-09 09:46:00,
2013-05-09 05:51:00,51.0,49.6,29.93,West,271,0.0,0.0,95,0.00,,CLR,0.00,VWS V14.00,2013-05-09 09:51:00,
2013-05-09 05:56:00,50.7,49.3,29.93,West,271,0.0,0.0,95,0.00,,CLR,0.00,VWS V14.00,2013-05-09 09:56:00,
2013-05-09 06:01:00,50.6,49.2,29.94,West,271,0.0,0.0,95,0.00,,CLR,0.00,VWS V14.00,2013-05-09 10:01:00,
2013-05-09 06:06:00,50.6,49.2,29.94,West,271,0.0,0.0,95,0.00,,CLR,0.00,VWS V14.00,2013-05-09 10:06:00,
2013-05-09 06:11:00,50.5,49.1,29.94,West,271,0.0,0.0,95,0.00,,CLR,0.00,VWS V14.00,2013-05-09 10:11:00,
2013-05-09 06:16:00,50.5,49.1,29.94,West,271,0.0,0.0,95,0.00,,CLR,0.00,VWS V14.00,2013-05-09 10:16:00,
2013-05-09 06:21:00,50.6,49.5,29.94,West,271,0.0,0.0,96,0.00,,CLR,0.00,VWS V14.00,2013-05-09 10:21:00,
2013-05-09 06:26:00,50.6,49.5,29.94,West,271,0.0,0.0,96,0.00,,CLR,0.00,VWS V14.00,2013-05-09 10:26:00,
2013-05-09 06:31:00,50.6,49.5,29.95,West,271,0.0,0.0,96,0.00,,CLR,0.00,VWS V14.00,2013-05-09 10:31:00,
2013-05-09 06:36:00,50.5,49.4,29.95,West,271,0.0,0.0,96,0.00,,CLR,0.00,VWS V14.00,2013-05-09 10:36:00,
2013-05-09 06:41:00,50.6,49.5,29.95,West,271,0.0,0.0,96,0.00,,CLR,0.00,VWS V14.00,2013-05-09 10:41:00,
2013-05-09 06:46:00,50.4,49.3,29.96,West,271,0.0,1.0,96,0.00,,CLR,0.00,VWS V14.00,2013-05-09 10:46:00,
2013-05-09 06:51:00,50.2,49.1,29.96,West,271,0.0,1.0,96,0.00,,CLR,0.00,VWS V14.00,2013-05-09 10:51:00,
2013-05-09 06:56:00,50.6,49.5,29.96,West,271,0.0,1.0,96,0.00,,CLR,0.00,VWS V14.00,2013-05-09 10:56:00,
2013-05-09 07:01:00,51.0,49.9,29.97,West,271,0.0,0.0,96,0.00,,CLR,0.00,VWS V14.00,2013-05-09 11:01:00,
2013-05-09 07:06:00,50.9,49.8,29.97,West,270,0.0,0.0,96,0.00,,CLR,0.00,VWS V14.00,2013-05-09 11:06:00,
2013-05-09 07:11:00,50.8,49.7,29.97,West,271,0.0,0.0,96,0.00,,CLR,0.00,VWS V14.00,2013-05-09 11:11:00,
2013-05-09 07:16:00,50.7,49.6,29.97,West,270,0.0,0.0,96,0.00,,CLR,0.00,VWS V14.00,2013-05-09 11:16:00,
2013-05-09 07:21:00,50.5,49.4,29.97,West,271,0.0,0.0,96,0.00,,CLR,0.00,VWS V14.00,2013-05-09 11:21:00,
2013-05-09 07:26:00,50.4,49.3,29.97,West,271,0.0,0.0,96,0.00,,CLR,0.00,VWS V14.00,2013-05-09 11:26:00,
2013-05-09 07:31:00,50.4,49.3,29.98,West,271,0.0,0.0,96,0.00,,CLR,0.00,VWS V14.00,2013-05-09 11:31:00,
2013-05-09 07:36:00,50.5,49.4,29.98,West,271,0.0,0.0,96,0.00,,CLR,0.00,VWS V14.00,2013-05-09 11:36:00,
2013-05-09 07:41:00,50.9,49.8,29.98,West,271,0.0,0.0,96,0.00,,CLR,0.00,VWS V14.00,2013-05-09 11:41:00,
2013-05-09 07:46:00,51.3,50.2,29.97,West,271,0.0,0.0,96,0.00,,CLR,0.00,VWS V14.00,2013-05-09 11:46:00,
2013-05-09 07:51:00,51.8,50.7,29.97,West,271,0.0,0.0,96,0.00,,CLR,0.00,VWS V14.00,2013-05-09 11:51:00,
2013-05-09 07:56:00,52.3,51.2,29.97,West,271,0.0,0.0,96,0.00,,CLR,0.00,VWS V14.00,2013-05-09 11:56:00,
2013-05-09 08:01:00,52.5,51.4,29.98,West,272,0.0,0.0,96,0.00,,CLR,0.00,VWS V14.00,2013-05-09 12:01:00,
2013-05-09 08:06:00,52.9,51.8,29.98,West,271,0.0,0.0,96,0.00,,CLR,0.00,VWS V14.00,2013-05-09 12:06:00,
2013-05-09 08:11:00,53.2,52.1,29.98,West,269,0.0,0.0,96,0.00,,CLR,0.00,VWS V14.00,2013-05-09 12:11:00,
2013-05-09 08:16:00,53.7,52.6,29.99,West,269,0.0,0.0,96,0.00,,CLR,0.00,VWS V14.00,2013-05-09 12:16:00,
2013-05-09 08:21:00,54.4,53.6,29.99,West,269,0.0,0.0,97,0.00,,CLR,0.00,VWS V14.00,2013-05-09 12:21:00,
2013-05-09 08:26:00,55.0,53.9,29.99,West,269,0.0,0.0,96,0.00,,CLR,0.00,VWS V14.00,2013-05-09 12:26:00,
2013-05-09 08:31:00,55.9,55.1,29.99,West,272,0.0,0.0,97,0.00,,CLR,0.00,VWS V14.00,2013-05-09 12:31:00,
2013-05-09 08:36:00,57.0,56.2,29.99,West,277,0.0,0.0,97,0.00,,CLR,0.00,VWS V14.00,2013-05-09 12:36:00,
2013-05-09 08:41:00,58.0,56.9,29.99,West,277,0.0,0.0,96,0.00,,CLR,0.00,VWS V14.00,2013-05-09 12:41:00,
2013-05-09 08:46:00,58.8,57.4,29.99,West,278,0.0,0.0,95,0.00,,CLR,0.00,VWS V14.00,2013-05-09 12:46:00,
2013-05-09 08:51:00,59.5,57.8,29.99,West,279,0.0,0.0,94,0.00,,CLR,0.00,VWS V14.00,2013-05-09 12:51:00,
2013-05-09 08:56:00,60.3,58.6,29.99,WNW,282,0.0,0.0,94,0.00,,CLR,0.00,VWS V14.00,2013-05-09 12:56:00,
2013-05-09 09:01:00,60.6,58.3,29.99,WNW,283,0.0,0.0,92,0.00,,CLR,0.00,VWS V14.00,2013-05-09 13:01:00,
2013-05-09 09:06:00,60.5,57.9,29.99,WNW,283,0.0,0.0,91,0.00,,CLR,0.00,VWS V14.00,2013-05-09 13:06:00,
2013-05-09 09:11:00,60.6,57.7,29.99,WSW,255,0.0,0.0,90,0.00,,CLR,0.00,VWS V14.00,2013-05-09 13:11:00,
2013-05-09 09:16:00,61.7,59.0,29.99,WSW,256,0.0,0.0,91,0.00,,CLR,0.00,VWS V14.00,2013-05-09 13:16:00,
2013-05-09 09:21:00,62.1,58.5,29.99,WSW,255,0.0,0.0,88,0.00,,CLR,0.00,VWS V14.00,2013-05-09 13:21:00,
2013-05-09 09:26:00,62.7,59.1,29.99,WSW,255,0.0,0.0,88,0.00,,CLR,0.00,VWS V14.00,2013-05-09 13:26:00,
2013-05-09 09:31:00,63.3,59.7,30.00,WSW,255,0.0,0.0,88,0.00,,CLR,0.00,VWS V14.00,2013-05-09 13:31:00,
2013-05-09 09:36:00,64.1,59.8,30.00,WSW,255,0.0,0.0,86,0.00,,CLR,0.00,VWS V14.00,2013-05-09 13:36:00,
2013-05-09 09:41:00,65.3,61.0,30.00,WSW,245,0.0,0.0,86,0.00,,CLR,0.00,VWS V14.00,2013-05-09 13:41:00,
2013-05-09 09:46:00,66.2,61.2,30.00,WSW,251,0.0,0.0,84,0.00,,CLR,0.00,VWS V14.00,2013-05-09 13:46:00,
2013-05-09 09:51:00,66.6,60.6,30.00,NW,313,0.0,0.0,81,0.00,,CLR,0.00,VWS V14.00,2013-05-09 13:51:00,
2013-05-09 09:56:00,66.8,61.1,30.00,NNW,333,0.0,0.0,82,0.00,,CLR,0.00,VWS V14.00,2013-05-09 13:56:00,
2013-05-09 10:01:00,67.3,60.9,30.00,NNW,333,0.0,0.0,80,0.00,,CLR,0.00,VWS V14.00,2013-05-09 14:01:00,
2013-05-09 10:06:00,68.3,61.5,30.00,NNW,333,0.0,0.0,79,0.00,,CLR,0.00,VWS V14.00,2013-05-09 14:06:00,
2013-05-09 10:11:00,68.9,61.8,30.00,NNW,335,0.0,0.0,78,0.00,,CLR,0.00,VWS V14.00,2013-05-09 14:11:00,
2013-05-09 10:16:00,69.4,61.1,30.00,NNW,338,0.0,0.0,75,0.00,,CLR,0.00,VWS V14.00,2013-05-09 14:16:00,
2013-05-09 10:21:00,69.5,61.2,30.00,North,0,0.0,0.0,75,0.00,,CLR,0.00,VWS V14.00,2013-05-09 14:21:00,
2013-05-09 10:26:00,69.7,60.7,30.00,North,0,0.0,0.0,73,0.00,,CLR,0.00,VWS V14.00,2013-05-09 14:26:00,
2013-05-09 10:31:00,70.1,60.7,30.00,North,356,0.0,0.0,72,0.00,,CLR,0.00,VWS V14.00,2013-05-09 14:31:00,
2013-05-09 10:36:00,70.3,60.9,30.00,West,268,0.0,0.0,72,0.00,,CLR,0.00,VWS V14.00,2013-05-09 14:36:00,
2013-05-09 10:41:00,70.5,61.0,30.00,West,262,0.0,0.0,72,0.00,,CLR,0.00,VWS V14.00,2013-05-09 14:41:00,
2013-05-09 10:46:00,70.7,61.6,29.99,West,259,0.0,0.0,73,0.00,,CLR,0.00,VWS V14.00,2013-05-09 14:46:00,
2013-05-09 10:51:00,71.3,62.2,29.99,North,359,0.0,0.0,73,0.00,,CLR,0.00,VWS V14.00,2013-05-09 14:51:00,
2013-05-09 10:56:00,72.0,61.3,29.99,NW,323,0.0,4.0,69,0.00,,CLR,0.00,VWS V14.00,2013-05-09 14:56:00,
2013-05-09 11:01:00,72.5,60.9,29.99,NNE,32,0.0,0.0,67,0.00,,CLR,0.00,VWS V14.00,2013-05-09 15:01:00,
2013-05-09 11:06:00,72.9,59.6,29.99,NNE,32,0.0,0.0,63,0.00,,CLR,0.00,VWS V14.00,2013-05-09 15:06:00,
2013-05-09 11:11:00,72.9,60.5,29.99,North,349,0.0,3.0,65,0.00,,CLR,0.00,VWS V14.00,2013-05-09 15:11:00,
2013-05-09 11:16:00,73.2,60.3,30.00,WSW,239,0.0,3.0,64,0.00,,CLR,0.00,VWS V14.00,2013-05-09 15:16:00,
2013-05-09 11:21:00,73.5,60.6,30.00,WNW,294,0.0,3.0,64,0.00,,CLR,0.00,VWS V14.00,2013-05-09 15:21:00,
2013-05-09 11:26:00,73.9,60.1,30.00,SSW,212,0.0,3.0,62,0.00,,CLR,0.00,VWS V14.00,2013-05-09 15:26:00,
2013-05-09 11:31:00,74.1,59.3,30.00,WNW,300,0.0,0.0,60,0.00,,CLR,0.00,VWS V14.00,2013-05-09 15:31:00,
2013-05-09 11:36:00,74.1,59.3,30.00,WNW,300,0.0,0.0,60,0.00,,CLR,0.00,VWS V14.00,2013-05-09 15:36:00,
2013-05-09 11:41:00,74.5,59.7,30.00,NNW,346,0.0,2.0,60,0.00,,CLR,0.00,VWS V14.00,2013-05-09 15:41:00,
2013-05-09 11:45:00,74.7,59.0,29.99,WSW,240,0.0,2.0,58,0.00,,CLR,0.00,VWS V14.00,2013-05-09 15:45:00,
2013-05-09 11:50:00,74.8,59.0,29.99,West,269,0.0,2.0,58,0.00,,CLR,0.00,VWS V14.00,2013-05-09 15:50:00,
2013-05-09 11:56:00,75.0,60.2,29.99,WSW,255,0.0,2.0,60,0.00,,CLR,0.00,VWS V14.00,2013-05-09 15:56:00,
2013-05-09 12:00:00,75.6,59.8,29.99,NW,312,2.0,2.0,58,0.00,,CLR,0.00,VWS V14.00,2013-05-09 16:00:00,
2013-05-09 12:05:00,75.4,60.1,29.99,North,358,0.0,3.0,59,0.00,,CLR,0.00,VWS V14.00,2013-05-09 16:05:00,
2013-05-09 12:10:00,75.4,58.6,29.99,North,354,0.0,3.0,56,0.00,,CLR,0.00,VWS V14.00,2013-05-09 16:10:00,
2013-05-09 12:15:00,75.9,60.1,30.00,North,356,0.0,3.0,58,0.00,,CLR,0.00,VWS V14.00,2013-05-09 16:15:00,
2013-05-09 12:20:00,76.4,59.6,30.00,WSW,248,1.0,3.0,56,0.00,,CLR,0.00,VWS V14.00,2013-05-09 16:20:00,
2013-05-09 12:25:00,76.6,59.8,30.00,SSW,212,0.0,3.0,56,0.00,,CLR,0.00,VWS V14.00,2013-05-09 16:25:00,
2013-05-09 12:30:00,76.9,60.5,30.00,SSW,212,0.0,0.0,57,0.00,,CLR,0.00,VWS V14.00,2013-05-09 16:30:00,
2013-05-09 12:35:00,77.0,59.6,30.00,SW,215,0.0,1.0,55,0.00,,CLR,0.00,VWS V14.00,2013-05-09 16:35:00,
2013-05-09 12:40:00,77.0,60.1,30.00,SW,216,0.0,1.0,56,0.00,,CLR,0.00,VWS V14.00,2013-05-09 16:40:00,
2013-05-09 12:45:00,77.0,59.6,29.99,NE,51,0.0,1.0,55,0.00,,CLR,0.00,VWS V14.00,2013-05-09 16:45:00,
2013-05-09 12:50:00,77.4,60.0,29.99,SSW,201,0.0,1.0,55,0.00,,CLR,0.00,VWS V14.00,2013-05-09 16:50:00,
2013-05-09 12:55:00,78.1,60.6,29.99,SSW,202,0.0,1.0,55,0.00,,CLR,0.00,VWS V14.00,2013-05-09 16:55:00,
2013-05-09 13:00:00,78.7,59.6,29.99,SSW,207,0.0,0.0,52,0.00,,CLR,0.00,VWS V14.00,2013-05-09 17:00:00,
2013-05-09 13:05:00,78.9,60.9,29.99,South,179,0.0,1.0,54,0.00,,CLR,0.00,VWS V14.00,2013-05-09 17:05:00,
2013-05-09 13:10:00,79.2,60.1,29.99,NNE,28,1.0,1.0,52,0.00,,CLR,0.00,VWS V14.00,2013-05-09 17:10:00,
2013-05-09 13:15:00,79.2,60.6,29.99,ESE,120,0.0,1.0,53,0.00,,CLR,0.00,VWS V14.00,2013-05-09 17:15:00,
2013-05-09 13:20:00,79.4,58.6,29.99,SE,134,0.0,1.0,49,0.00,,CLR,0.00,VWS V14.00,2013-05-09 17:20:00,
2013-05-09 13:25:00,79.4,59.2,29.99,SE,134,0.0,1.0,50,0.00,,CLR,0.00,VWS V14.00,2013-05-09 17:25:00,
2013-05-09 13:30:00,79.4,59.2,29.99,South,176,0.0,1.0,50,0.00,,CLR,0.00,VWS V14.00,2013-05-09 17:30:00,
2013-05-09 13:35:00,79.4,59.2,29.99,South,186,0.0,1.0,50,0.00,,CLR,0.00,VWS V14.00,2013-05-09 17:35:00,
2013-05-09 13:40:00,79.4,61.3,29.99,South,186,0.0,1.0,54,0.00,,CLR,0.00,VWS V14.00,2013-05-09 17:40:00,
2013-05-09 13:45:00,79.7,60.0,29.99,SSW,206,0.0,5.0,51,0.00,,CLR,0.00,VWS V14.00,2013-05-09 17:45:00,
2013-05-09 13:50:00,79.6,61.5,29.99,WSW,248,0.0,5.0,54,0.00,,CLR,0.00,VWS V14.00,2013-05-09 17:50:00,
2013-05-09 13:55:00,79.5,59.8,29.99,SSE,153,0.0,5.0,51,0.00,,CLR,0.00,VWS V14.00,2013-05-09 17:55:00,
2013-05-09 14:00:00,79.0,59.9,29.99,SSE,152,0.0,0.0,52,0.00,,CLR,0.00,VWS V14.00,2013-05-09 18:00:00,
2013-05-09 14:05:00,78.7,59.6,29.99,SSE,152,0.0,0.0,52,0.00,,CLR,0.00,VWS V14.00,2013-05-09 18:05:00,
2013-05-09 14:10:00,79.3,62.3,29.99,SSW,203,0.0,1.0,56,0.00,,CLR,0.00,VWS V14.00,2013-05-09 18:10:00,
2013-05-09 14:15:00,79.7,59.4,29.99,SSW,195,0.0,1.0,50,0.00,,CLR,0.00,VWS V14.00,2013-05-09 18:15:00,
2013-05-09 14:20:00,80.1,59.8,29.99,WNW,293,0.0,1.0,50,0.00,,CLR,0.00,VWS V14.00,2013-05-09 18:20:00,
2013-05-09 14:25:00,80.4,60.1,29.99,WNW,282,0.0,1.0,50,0.00,,CLR,0.00,VWS V14.00,2013-05-09 18:25:00,
2013-05-09 14:30:00,80.5,61.3,29.98,NE,42,0.0,0.0,52,0.00,,CLR,0.00,VWS V14.00,2013-05-09 18:30:00,
2013-05-09 14:35:00,80.3,60.0,29.98,NE,41,0.0,0.0,50,0.00,,CLR,0.00,VWS V14.00,2013-05-09 18:35:00,
2013-05-09 14:40:00,80.3,60.0,29.98,South,169,0.0,0.0,50,0.00,,CLR,0.00,VWS V14.00,2013-05-09 18:40:00,
2013-05-09 14:45:00,80.6,61.9,29.97,South,169,0.0,0.0,53,0.00,,CLR,0.00,VWS V14.00,2013-05-09 18:45:00,
2013-05-09 14:50:00,80.3,60.5,29.97,South,169,0.0,0.0,51,0.00,,CLR,0.00,VWS V14.00,2013-05-09 18:50:00,
2013-05-09 14:55:00,79.8,62.2,29.97,South,169,0.0,0.0,55,0.00,,CLR,0.00,VWS V14.00,2013-05-09 18:55:00,
2013-05-09 15:00:00,80.0,59.1,29.97,SW,228,0.0,2.0,49,0.00,,CLR,0.00,VWS V14.00,2013-05-09 19:00:00,
2013-05-09 15:05:00,80.4,62.2,29.97,WSW,238,0.0,2.0,54,0.00,,CLR,0.00,VWS V14.00,2013-05-09 19:05:00,
2013-05-09 15:10:00,81.2,63.0,29.97,WSW,253,0.0,2.0,54,0.00,,CLR,0.00,VWS V14.00,2013-05-09 19:10:00,
2013-05-09 15:15:00,82.0,63.7,29.96,NW,314,0.0,2.0,54,0.00,,CLR,0.00,VWS V14.00,2013-05-09 19:15:00,
2013-05-09 15:20:00,82.2,62.3,29.96,ESE,115,0.0,2.0,51,0.00,,CLR,0.00,VWS V14.00,2013-05-09 19:20:00,
2013-05-09 15:25:00,82.4,61.9,29.96,SSE,148,0.0,2.0,50,0.00,,CLR,0.00,VWS V14.00,2013-05-09 19:25:00,
2013-05-09 15:30:00,82.3,63.5,29.96,SE,146,0.0,0.0,53,0.00,,CLR,0.00,VWS V14.00,2013-05-09 19:30:00,
2013-05-09 15:35:00,82.3,62.4,29.96,SE,133,0.0,0.0,51,0.00,,CLR,0.00,VWS V14.00,2013-05-09 19:35:00,
2013-05-09 15:40:00,82.3,62.4,29.96,SE,132,0.0,0.0,51,0.00,,CLR,0.00,VWS V14.00,2013-05-09 19:40:00,
2013-05-09 15:45:00,82.0,61.5,29.96,SSE,149,0.0,1.0,50,0.00,,CLR,0.00,VWS V14.00,2013-05-09 19:45:00,
2013-05-09 15:50:00,81.8,63.5,29.96,SSE,149,0.0,1.0,54,0.00,,CLR,0.00,VWS V14.00,2013-05-09 19:50:00,
2013-05-09 15:55:00,81.6,61.2,29.96,SSE,149,0.0,1.0,50,0.00,,CLR,0.00,VWS V14.00,2013-05-09 19:55:00,
2013-05-09 16:00:00,81.1,62.4,29.95,SSE,149,0.0,0.0,53,0.00,,CLR,0.00,VWS V14.00,2013-05-09 20:00:00,
2013-05-09 16:05:00,80.4,62.8,29.95,SSE,149,0.0,0.0,55,0.00,,CLR,0.00,VWS V14.00,2013-05-09 20:05:00,
2013-05-09 16:10:00,80.2,62.6,29.95,SSE,156,0.0,0.0,55,0.00,,CLR,0.00,VWS V14.00,2013-05-09 20:10:00,
2013-05-09 16:15:00,80.2,61.5,29.94,SSE,160,0.0,0.0,53,0.00,,CLR,0.00,VWS V14.00,2013-05-09 20:15:00,
2013-05-09 16:20:00,80.4,62.8,29.94,SW,232,0.0,1.0,55,0.00,,CLR,0.00,VWS V14.00,2013-05-09 20:20:00,
2013-05-09 16:25:00,80.4,62.8,29.94,SW,232,0.0,1.0,55,0.00,,CLR,0.00,VWS V14.00,2013-05-09 20:25:00,
2013-05-09 16:30:00,80.0,62.4,29.94,SSE,158,1.0,1.0,55,0.00,,CLR,0.00,VWS V14.00,2013-05-09 20:30:00,
2013-05-09 16:35:00,79.3,60.7,29.94,South,182,0.0,1.0,53,0.00,,CLR,0.00,VWS V14.00,2013-05-09 20:35:00,
2013-05-09 16:40:00,78.7,61.7,29.94,SW,214,0.0,1.0,56,0.00,,CLR,0.00,VWS V14.00,2013-05-09 20:40:00,
2013-05-09 16:45:00,77.7,59.8,29.94,SSW,213,0.0,7.0,54,0.00,,CLR,0.00,VWS V14.00,2013-05-09 20:45:00,
2013-05-09 16:50:00,77.1,60.2,29.94,WSW,250,0.0,7.0,56,0.00,,CLR,0.00,VWS V14.00,2013-05-09 20:50:00,
2013-05-09 16:55:00,77.0,61.6,29.94,WSW,250,0.0,7.0,59,0.00,,CLR,0.00,VWS V14.00,2013-05-09 20:55:00,
2013-05-09 17:00:00,77.3,61.9,29.94,SW,236,0.0,1.0,59,0.00,,CLR,0.00,VWS V14.00,2013-05-09 21:00:00,
2013-05-09 17:05:00,78.0,62.0,29.94,WSW,243,0.0,1.0,58,0.00,,CLR,0.00,VWS V14.00,2013-05-09 21:05:00,
2013-05-09 17:10:00,78.2,61.7,29.94,SW,227,0.0,9.0,57,0.00,,CLR,0.00,VWS V14.00,2013-05-09 21:10:00,
2013-05-09 17:15:00,77.7,61.3,29.95,NW,312,0.0,9.0,57,0.00,,CLR,0.00,VWS V14.00,2013-05-09 21:15:00,
2013-05-09 17:20:00,77.4,59.5,29.95,West,270,0.0,9.0,54,0.00,,CLR,0.00,VWS V14.00,2013-05-09 21:20:00,
2013-05-09 17:25:00,77.1,60.2,29.95,SW,228,0.0,9.0,56,0.00,,CLR,0.00,VWS V14.00,2013-05-09 21:25:00,
2013-05-09 17:30:00,77.1,60.2,29.94,SW,224,0.0,1.0,56,0.00,,CLR,0.00,VWS V14.00,2013-05-09 21:30:00,
2013-05-09 17:35:00,77.1,61.2,29.94,SW,233,0.0,2.0,58,0.00,,CLR,0.00,VWS V14.00,2013-05-09 21:35:00,
2013-05-09 17:40:00,77.1,61.7,29.94,SW,222,0.0,4.0,59,0.00,,CLR,0.00,VWS V14.00,2013-05-09 21:40:00,
2013-05-09 17:45:00,77.1,61.7,29.94,WSW,242,0.0,4.0,59,0.00,,CLR,0.00,VWS V14.00,2013-05-09 21:45:00,
2013-05-09 17:50:00,77.1,60.7,29.94,SW,229,0.0,4.0,57,0.00,,CLR,0.00,VWS V14.00,2013-05-09 21:50:00,
2013-05-09 17:55:00,76.9,61.0,29.94,WSW,249,0.0,4.0,58,0.00,,CLR,0.00,VWS V14.00,2013-05-09 21:55:00,
2013-05-09 18:00:00,76.6,61.2,29.94,SW,221,0.0,0.0,59,0.00,,CLR,0.00,VWS V14.00,2013-05-09 22:00:00,
2013-05-09 18:05:00,76.6,61.2,29.94,SW,219,0.0,0.0,59,0.00,,CLR,0.00,VWS V14.00,2013-05-09 22:05:00,
2013-05-09 18:10:00,76.7,60.8,29.94,SW,215,0.0,1.0,58,0.00,,CLR,0.00,VWS V14.00,2013-05-09 22:10:00,
2013-05-09 18:15:00,76.8,61.4,29.95,SW,225,0.0,2.0,59,0.00,,CLR,0.00,VWS V14.00,2013-05-09 22:15:00,
2013-05-09 18:20:00,76.8,61.9,29.95,SW,226,0.0,2.0,60,0.00,,CLR,0.00,VWS V14.00,2013-05-09 22:20:00,
2013-05-09 18:25:00,76.9,62.0,29.95,SW,227,0.0,2.0,60,0.00,,CLR,0.00,VWS V14.00,2013-05-09 22:25:00,
2013-05-09 18:30:00,76.7,62.7,29.94,SW,226,0.0,0.0,62,0.00,,CLR,0.00,VWS V14.00,2013-05-09 22:30:00,
2013-05-09 18:35:00,76.1,63.0,29.94,SW,225,0.0,0.0,64,0.00,,CLR,0.00,VWS V14.00,2013-05-09 22:35:00,
2013-05-09 18:40:00,75.7,62.7,29.94,SW,225,0.0,0.0,64,0.00,,CLR,0.00,VWS V14.00,2013-05-09 22:40:00,
2013-05-09 18:45:00,75.5,62.9,29.94,SW,223,0.0,0.0,65,0.00,,CLR,0.00,VWS V14.00,2013-05-09 22:45:00,
2013-05-09 18:50:00,75.3,62.3,29.94,SW,215,0.0,0.0,64,0.00,,CLR,0.00,VWS V14.00,2013-05-09 22:50:00,
2013-05-09 18:55:00,75.3,62.7,29.94,SW,218,0.0,0.0,65,0.00,,CLR,0.00,VWS V14.00,2013-05-09 22:55:00,
2013-05-09 19:00:00,75.2,63.1,29.94,SW,217,0.0,0.0,66,0.00,,CLR,0.00,VWS V14.00,2013-05-09 23:00:00,
2013-05-09 19:05:00,75.1,63.4,29.94,SW,217,0.0,0.0,67,0.00,,CLR,0.00,VWS V14.00,2013-05-09 23:05:00,
2013-05-09 19:10:00,75.1,62.1,29.94,SW,217,0.0,0.0,64,0.00,,CLR,0.00,VWS V14.00,2013-05-09 23:10:00,
2013-05-09 19:15:00,75.0,62.5,29.94,SW,217,0.0,0.0,65,0.00,,CLR,0.00,VWS V14.00,2013-05-09 23:15:00,
2013-05-09 19:20:00,75.0,62.9,29.94,SW,217,0.0,0.0,66,0.00,,CLR,0.00,VWS V14.00,2013-05-09 23:20:00,
2013-05-09 19:25:00,74.8,62.7,29.94,SW,217,0.0,0.0,66,0.00,,CLR,0.00,VWS V14.00,2013-05-09 23:25:00,
2013-05-09 19:30:00,74.5,62.4,29.94,SW,217,0.0,0.0,66,0.00,,CLR,0.00,VWS V14.00,2013-05-09 23:30:00,
2013-05-09 19:35:00,74.3,62.6,29.94,South,191,0.0,5.0,67,0.00,,CLR,0.00,VWS V14.00,2013-05-09 23:35:00,
2013-05-09 19:40:00,74.0,62.8,29.94,SW,214,0.0,5.0,68,0.00,,CLR,0.00,VWS V14.00,2013-05-09 23:40:00,
2013-05-09 19:45:00,73.7,62.9,29.94,SW,236,0.0,5.0,69,0.00,,CLR,0.00,VWS V14.00,2013-05-09 23:45:00,
2013-05-09 19:50:00,73.3,62.1,29.94,SW,218,0.0,5.0,68,0.00,,CLR,0.00,VWS V14.00,2013-05-09 23:50:00,
2013-05-09 19:55:00,72.9,62.1,29.94,SW,218,0.0,5.0,69,0.00,,CLR,0.00,VWS V14.00,2013-05-09 23:55:00,
2013-05-09 20:00:00,72.4,61.7,29.94,SW,218,0.0,0.0,69,0.00,,CLR,0.00,VWS V14.00,2013-05-10 00:00:00,
2013-05-09 20:05:00,71.9,61.2,29.94,SW,218,0.0,0.0,69,0.00,,CLR,0.00,VWS V14.00,2013-05-10 00:05:00,
2013-05-09 20:10:00,71.5,60.8,29.94,SW,218,0.0,0.0,69,0.00,,CLR,0.00,VWS V14.00,2013-05-10 00:10:00,
2013-05-09 20:15:00,71.1,60.8,29.95,SW,218,0.0,0.0,70,0.00,,CLR,0.00,VWS V14.00,2013-05-10 00:15:00,
2013-05-09 20:20:00,70.6,60.3,29.95,SW,218,0.0,0.0,70,0.00,,CLR,0.00,VWS V14.00,2013-05-10 00:20:00,
2013-05-09 20:25:00,70.3,60.5,29.95,SW,218,0.0,0.0,71,0.00,,CLR,0.00,VWS V14.00,2013-05-10 00:25:00,
2013-05-09 20:30:00,69.9,60.5,29.96,SW,218,0.0,0.0,72,0.00,,CLR,0.00,VWS V14.00,2013-05-10 00:30:00,
2013-05-09 20:35:00,69.7,60.3,29.96,SW,218,0.0,0.0,72,0.00,,CLR,0.00,VWS V14.00,2013-05-10 00:35:00,
2013-05-09 20:40:00,69.5,60.5,29.96,SW,218,0.0,0.0,73,0.00,,CLR,0.00,VWS V14.00,2013-05-10 00:40:00,
2013-05-09 20:45:00,69.4,60.4,29.96,SW,218,0.0,0.0,73,0.00,,CLR,0.00,VWS V14.00,2013-05-10 00:45:00,
2013-05-09 20:50:00,69.2,60.2,29.96,SW,218,0.0,0.0,73,0.00,,CLR,0.00,VWS V14.00,2013-05-10 00:50:00,
2013-05-09 20:55:00,69.1,60.1,29.96,SW,218,0.0,0.0,73,0.00,,CLR,0.00,VWS V14.00,2013-05-10 00:55:00,
2013-05-09 21:00:00,68.8,60.2,29.96,SW,218,0.0,0.0,74,0.00,,CLR,0.00,VWS V14.00,2013-05-10 01:00:00,
2013-05-09 21:05:00,68.5,60.3,29.96,SW,218,0.0,0.0,75,0.00,,CLR,0.00,VWS V14.00,2013-05-10 01:05:00,
2013-05-09 21:10:00,68.1,60.6,29.96,SW,218,0.0,0.0,77,0.00,,CLR,0.00,VWS V14.00,2013-05-10 01:10:00,
2013-05-09 21:15:00,67.8,60.3,29.96,SW,218,0.0,0.0,77,0.00,,CLR,0.00,VWS V14.00,2013-05-10 01:15:00,
2013-05-09 21:20:00,67.5,60.0,29.96,SW,218,0.0,0.0,77,0.00,,CLR,0.00,VWS V14.00,2013-05-10 01:20:00,
2013-05-09 21:25:00,67.3,60.2,29.96,SW,218,0.0,0.0,78,0.00,,CLR,0.00,VWS V14.00,2013-05-10 01:25:00,
2013-05-09 21:30:00,67.2,60.1,29.96,SW,218,0.0,0.0,78,0.00,,CLR,0.00,VWS V14.00,2013-05-10 01:30:00,
2013-05-09 21:35:00,67.2,60.1,29.96,SW,218,0.0,0.0,78,0.00,,CLR,0.00,VWS V14.00,2013-05-10 01:35:00,
2013-05-09 21:40:00,67.1,60.0,29.96,SW,218,0.0,0.0,78,0.00,,CLR,0.00,VWS V14.00,2013-05-10 01:40:00,
2013-05-09 21:45:00,66.8,60.1,29.97,SW,218,0.0,0.0,79,0.00,,CLR,0.00,VWS V14.00,2013-05-10 01:45:00,
2013-05-09 21:50:00,66.4,60.4,29.97,SW,218,0.0,0.0,81,0.00,,CLR,0.00,VWS V14.00,2013-05-10 01:50:00,
2013-05-09 21:55:00,65.9,60.3,29.97,SW,218,0.0,0.0,82,0.00,,CLR,0.00,VWS V14.00,2013-05-10 01:55:00,
2013-05-09 22:00:00,65.4,60.5,29.98,SW,218,0.0,0.0,84,0.00,,CLR,0.00,VWS V14.00,2013-05-10 02:00:00,
2013-05-09 22:05:00,65.1,60.5,29.98,SW,218,0.0,0.0,85,0.00,,CLR,0.00,VWS V14.00,2013-05-10 02:05:00,
2013-05-09 22:10:00,64.9,60.3,29.98,SW,218,0.0,0.0,85,0.00,,CLR,0.00,VWS V14.00,2013-05-10 02:10:00,
2013-05-09 22:15:00,64.8,60.5,29.98,SW,218,0.0,0.0,86,0.00,,CLR,0.00,VWS V14.00,2013-05-10 02:15:00,
2013-05-09 22:20:00,64.6,60.0,29.98,SW,218,0.0,0.0,85,0.00,,CLR,0.00,VWS V14.00,2013-05-10 02:20:00,
2013-05-09 22:25:00,64.3,60.0,29.98,SW,218,0.0,0.0,86,0.00,,CLR,0.00,VWS V14.00,2013-05-10 02:25:00,
2013-05-09 22:30:00,64.0,60.1,29.99,SW,218,0.0,0.0,87,0.00,,CLR,0.00,VWS V14.00,2013-05-10 02:30:00,
2013-05-09 22:35:00,63.7,59.8,29.99,SW,218,0.0,0.0,87,0.00,,CLR,0.00,VWS V14.00,2013-05-10 02:35:00,
2013-05-09 22:40:00,63.4,59.8,29.99,SW,218,0.0,0.0,88,0.00,,CLR,0.00,VWS V14.00,2013-05-10 02:40:00,
2013-05-09 22:45:00,63.1,59.5,29.98,SW,218,0.0,0.0,88,0.00,,CLR,0.00,VWS V14.00,2013-05-10 02:45:00,
2013-05-09 22:50:00,62.9,59.6,29.98,SW,218,0.0,0.0,89,0.00,,CLR,0.00,VWS V14.00,2013-05-10 02:50:00,
2013-05-09 22:55:00,62.5,59.2,29.98,SW,218,0.0,0.0,89,0.00,,CLR,0.00,VWS V14.00,2013-05-10 02:55:00,
2013-05-09 23:00:00,62.3,59.3,29.98,SW,218,0.0,1.0,90,0.00,,CLR,0.00,VWS V14.00,2013-05-10 03:00:00,
2013-05-09 23:05:00,62.1,59.5,29.98,SW,218,0.0,1.0,91,0.00,,CLR,0.00,VWS V14.00,2013-05-10 03:05:00,
2013-05-09 23:10:00,62.0,59.3,29.98,SW,218,0.0,1.0,91,0.00,,CLR,0.00,VWS V14.00,2013-05-10 03:10:00,
2013-05-09 23:15:00,61.8,59.2,29.98,SW,218,0.0,1.0,91,0.00,,CLR,0.00,VWS V14.00,2013-05-10 03:15:00,
2013-05-09 23:20:00,61.7,59.4,29.98,SW,218,0.0,1.0,92,0.00,,CLR,0.00,VWS V14.00,2013-05-10 03:20:00,
2013-05-09 23:25:00,61.6,59.3,29.98,SW,218,0.0,1.0,92,0.00,,CLR,0.00,VWS V14.00,2013-05-10 03:25:00,
2013-05-09 23:30:00,61.3,59.0,29.98,SW,218,0.0,0.0,92,0.00,,CLR,0.00,VWS V14.00,2013-05-10 03:30:00,
2013-05-09 23:35:00,61.2,58.9,29.98,SW,218,0.0,0.0,92,0.00,,CLR,0.00,VWS V14.00,2013-05-10 03:35:00,
2013-05-09 23:40:00,61.1,59.1,29.98,SW,218,0.0,0.0,93,0.00,,CLR,0.00,VWS V14.00,2013-05-10 03:40:00,
2013-05-09 23:45:00,61.0,59.0,29.98,SW,218,0.0,0.0,93,0.00,,CLR,0.00,VWS V14.00,2013-05-10 03:45:00,
2013-05-09 23:50:00,60.9,58.9,29.98,SW,218,0.0,0.0,93,0.00,,CLR,0.00,VWS V14.00,2013-05-10 03:50:00,
2013-05-09 23:55:00,60.8,58.8,29.98,SW,218,0.0,0.0,93,0.00,,CLR,0.00,VWS V14.00,2013-05-10 03:55:00,